Time,TemperatureF,DewpointF,PressureIn,WindDirection,WindDirectionDegrees,WindSpeedMPH,WindSpeedGustMPH,Humidity,HourlyPrecipIn,Conditions,Clouds,dailyrainin,SoftwareType,DateUTC
2013-09-05 00:21:00,68.0,50.0,30.10,North,8,0.0,-999.0,52,-99.99,,,-99.99,,2013-09-05 06:21:00,
2013-09-05 00:52:00,66.0,49.0,30.10,North,8,0.0,-999.0,55,-99.99,,,-99.99,,2013-09-05 06:52:00,
2013-09-05 01:22:00,66.0,49.0,30.12,WNW,292,2.0,-999.0,55,-99.99,,,-99.99,,2013-09-05 07:22:00,
2013-09-05 01:52:00,65.0,49.0,30.11,WNW,292,0.0,-999.0,56,-99.99,,,-99.99,,2013-09-05 07:52:00,
2013-09-05 02:21:00,63.0,49.0,30.12,WNW,292,0.0,-999.0,60,-99.99,,,-99.99,,2013-09-05 08:21:00,
2013-09-05 02:52:00,61.0,49.0,30.14,WNW,292,0.0,-999.0,64,-99.99,,,-99.99,,2013-09-05 08:52:00,
2013-09-05 03:22:00,59.0,48.0,30.13,WNW,292,0.0,-999.0,67,-99.99,,,-99.99,,2013-09-05 09:22:00,
2013-09-05 03:53:00,59.0,48.0,30.13,WNW,292,0.0,-999.0,68,-99.99,,,-99.99,,2013-09-05 09:53:00,
2013-09-05 04:23:00,58.0,48.0,30.15,WNW,292,0.0,-999.0,70,-99.99,,,-99.99,,2013-09-05 10:23:00,
2013-09-05 04:53:00,58.0,48.0,30.17,WNW,292,0.0,-999.0,70,-99.99,,,-99.99,,2013-09-05 10:53:00,
2013-09-05 05:21:00,58.0,49.0,30.17,WNW,292,0.0,-999.0,71,-99.99,,,-99.99,,2013-09-05 11:21:00,
2013-09-05 05:52:00,57.0,48.0,30.18,WNW,292,0.0,-999.0,72,-99.99,,,-99.99,,2013-09-05 11:52:00,
2013-09-05 06:01:00,57.0,48.0,30.18,WNW,292,0.0,-999.0,72,-99.99,,,-99.99,,2013-09-05 12:01:00,
2013-09-05 06:21:00,56.0,48.0,30.19,WNW,292,0.0,-999.0,74,-99.99,,,-99.99,,2013-09-05 12:21:00,
2013-09-05 06:32:00,56.0,48.0,30.19,WNW,292,0.0,-999.0,74,-99.99,,,-99.99,,2013-09-05 12:32:00,
2013-09-05 06:52:00,56.0,48.0,30.23,WNW,292,0.0,-999.0,74,-99.99,,,-99.99,,2013-09-05 12:52:00,
2013-09-05 07:21:00,55.0,47.0,30.23,WNW,292,0.0,-999.0,75,-99.99,,,-99.99,,2013-09-05 13:21:00,
2013-09-05 07:52:00,56.0,47.0,30.28,WNW,292,0.0,-999.0,72,-99.99,,,-99.99,,2013-09-05 13:52:00,
2013-09-05 08:21:00,60.0,48.0,30.25,WNW,292,0.0,-999.0,64,-99.99,,,-99.99,,2013-09-05 14:21:00,
2013-09-05 08:52:00,64.0,49.0,30.24,WNW,292,0.0,-999.0,59,-99.99,,,-99.99,,2013-09-05 14:52:00,
2013-09-05 09:22:00,66.0,50.0,30.22,WNW,290,0.0,-999.0,56,-99.99,,,-99.99,,2013-09-05 15:22:00,
2013-09-05 09:54:00,68.0,50.0,30.22,SSE,160,1.0,-999.0,52,-99.99,,,-99.99,,2013-09-05 15:54:00,
2013-09-05 10:23:00,70.0,49.0,30.19,SE,131,1.0,-999.0,48,-99.99,,,-99.99,,2013-09-05 16:23:00,
2013-09-05 10:54:00,72.0,49.0,30.20,SE,129,1.0,-999.0,44,-99.99,,,-99.99,,2013-09-05 16:54:00,
2013-09-05 11:23:00,75.0,41.0,30.14,ESE,108,3.0,-999.0,29,-99.99,,,-99.99,,2013-09-05 17:23:00,
2013-09-05 11:52:00,77.0,42.0,30.16,East,100,2.0,-999.0,29,-99.99,,,-99.99,,2013-09-05 17:52:00,
2013-09-05 12:21:00,79.0,42.0,30.13,SE,142,3.0,-999.0,27,-99.99,,,-99.99,,2013-09-05 18:21:00,
2013-09-05 12:52:00,80.0,42.0,30.13,SSW,211,2.0,-999.0,26,-99.99,,,-99.99,,2013-09-05 18:52:00,
2013-09-05 13:21:00,81.0,41.0,30.12,South,183,2.0,-999.0,24,-99.99,,,-99.99,,2013-09-05 19:21:00,
2013-09-05 13:52:00,81.0,40.0,30.12,SW,214,4.0,-999.0,23,-99.99,,,-99.99,,2013-09-05 19:52:00,
2013-09-05 14:22:00,81.0,39.0,30.12,SSE,151,3.0,-999.0,22,-99.99,,,-99.99,,2013-09-05 20:22:00,
2013-09-05 14:32:00,81.0,39.0,30.12,SSE,151,3.0,-999.0,22,-99.99,,,-99.99,,2013-09-05 20:32:00,
2013-09-05 14:52:00,84.0,41.0,30.13,SSE,156,2.0,-999.0,22,-99.99,,,-99.99,,2013-09-05 20:52:00,
2013-09-05 15:21:00,84.0,40.0,30.13,South,191,3.0,-999.0,21,-99.99,,,-99.99,,2013-09-05 21:21:00,
2013-09-05 15:53:00,84.0,39.0,30.10,South,190,4.0,-999.0,20,-99.99,,,-99.99,,2013-09-05 21:53:00,
2013-09-05 16:24:00,84.0,39.0,30.09,SE,142,3.0,-999.0,20,-99.99,,,-99.99,,2013-09-05 22:24:00,
2013-09-05 16:53:00,85.0,39.0,30.09,South,182,2.0,-999.0,20,-99.99,,,-99.99,,2013-09-05 22:53:00,
2013-09-05 17:22:00,83.0,39.0,30.10,South,180,2.0,-999.0,21,-99.99,,,-99.99,,2013-09-05 23:22:00,
2013-09-05 17:53:00,84.0,40.0,30.09,South,179,1.0,-999.0,21,-99.99,,,-99.99,,2013-09-05 23:53:00,
2013-09-05 18:22:00,81.0,40.0,30.09,SW,223,2.0,-999.0,23,-99.99,,,-99.99,,2013-09-06 00:22:00,
2013-09-05 19:21:00,75.0,41.0,30.14,SSW,199,0.0,-999.0,30,-99.99,,,-99.99,,2013-09-06 01:21:00,
2013-09-05 19:52:00,74.0,40.0,30.12,SW,234,0.0,-999.0,29,-99.99,,,-99.99,,2013-09-06 01:52:00,
2013-09-05 20:22:00,74.0,39.0,30.12,WSW,241,1.0,-999.0,28,-99.99,,,-99.99,,2013-09-06 02:22:00,
2013-09-05 20:52:00,74.0,37.0,30.09,SW,218,1.0,-999.0,26,-99.99,,,-99.99,,2013-09-06 02:52:00,
2013-09-05 21:22:00,73.0,35.0,30.09,South,187,0.0,-999.0,25,-99.99,,,-99.99,,2013-09-06 03:22:00,
2013-09-05 21:55:00,72.0,37.0,30.09,SW,223,0.0,-999.0,28,-99.99,,,-99.99,,2013-09-06 03:55:00,
2013-09-05 22:23:00,69.0,36.0,30.11,SW,223,0.0,-999.0,30,-99.99,,,-99.99,,2013-09-06 04:23:00,
2013-09-05 22:54:00,66.0,38.0,30.12,SW,223,0.0,-999.0,35,-99.99,,,-99.99,,2013-09-06 04:54:00,
2013-09-05 23:23:00,65.0,39.0,30.14,SW,223,0.0,-999.0,38,-99.99,,,-99.99,,2013-09-06 05:23:00,
2013-09-05 23:52:00,63.0,38.0,30.12,SW,223,0.0,-999.0,40,-99.99,,,-99.99,,2013-09-06 05:52:00,